createdAt,value
2018-05-02T00:00:59.775Z,3.60
2018-05-02T00:04:01.795Z,3.80
2018-05-02T00:07:04.568Z,6.10
2018-05-02T00:10:06.584Z,4.07
2018-05-02T00:13:08.639Z,2.80
2018-05-02T00:16:10.623Z,2.50
2018-05-02T00:19:12.652Z,3.00
2018-05-02T00:22:14.642Z,3.23
2018-05-02T00:25:16.663Z,3.97
2018-05-02T00:28:18.673Z,8.43
2018-05-02T00:31:21.444Z,5.47
2018-05-02T00:34:23.458Z,4.80
2018-05-02T00:37:25.475Z,4.47
2018-05-02T00:40:27.474Z,3.53
2018-05-02T00:43:29.489Z,3.07
2018-05-02T00:46:31.564Z,2.70
2018-05-02T00:49:33.584Z,3.97
2018-05-02T00:52:35.577Z,3.00
2018-05-02T00:55:37.627Z,4.00
2018-05-02T00:58:39.632Z,3.50
2018-05-02T01:01:41.657Z,2.33
2018-05-02T01:04:43.654Z,5.37
2018-05-02T01:07:45.676Z,3.87
2018-05-02T01:10:47.680Z,3.00
2018-05-02T01:13:49.694Z,3.60
2018-05-02T01:16:51.706Z,6.40
2018-05-02T01:19:53.687Z,2.20
2018-05-02T01:22:55.709Z,3.60
2018-05-02T01:25:57.734Z,3.63
2018-05-02T01:28:59.734Z,3.60
2018-05-02T01:32:01.742Z,3.23
2018-05-02T01:35:03.774Z,4.87
2018-05-02T01:38:05.790Z,5.20
2018-05-02T01:41:07.825Z,3.37
2018-05-02T01:44:09.818Z,3.50
2018-05-02T01:47:11.830Z,3.60
2018-05-02T01:50:13.820Z,3.80
2018-05-02T01:53:15.867Z,3.53
2018-05-02T01:56:17.873Z,6.33
2018-05-02T01:59:20.663Z,3.17
2018-05-02T02:02:22.677Z,3.67
2018-05-02T02:05:24.669Z,6.33
2018-05-02T02:08:26.672Z,3.20
2018-05-02T02:11:28.682Z,3.67
2018-05-02T02:14:30.708Z,4.53
2018-05-02T02:17:33.472Z,3.30
2018-05-02T02:20:35.505Z,3.87
2018-05-02T02:23:37.503Z,9.57
2018-05-02T02:26:40.114Z,7.87
2018-05-02T02:29:42.128Z,3.30
2018-05-02T02:32:44.163Z,7.90
2018-05-02T02:35:46.407Z,3.33
2018-05-02T02:38:49.222Z,3.13
2018-05-02T02:41:51.224Z,2.93
2018-05-02T02:44:53.244Z,5.23
2018-05-02T02:47:55.996Z,3.77
2018-05-02T02:50:57.997Z,3.83
2018-05-02T02:54:00.742Z,6.30
2018-05-02T02:57:02.750Z,5.07
2018-05-02T03:00:05.732Z,5.97
2018-05-02T03:03:07.724Z,3.90
2018-05-02T03:06:09.740Z,3.10
2018-05-02T03:09:11.759Z,4.20
2018-05-02T03:12:13.799Z,4.53
2018-05-02T03:15:15.800Z,4.30
2018-05-02T03:18:17.816Z,5.03
2018-05-02T03:21:19.841Z,2.90
2018-05-02T03:24:21.833Z,6.70
2018-05-02T03:27:23.846Z,4.30
2018-05-02T03:30:26.599Z,2.50
2018-05-02T03:33:28.680Z,3.70
2018-05-02T03:36:30.683Z,3.53
2018-05-02T03:39:33.470Z,4.60
2018-05-02T03:42:35.483Z,2.83
2018-05-02T03:45:37.481Z,4.20
2018-05-02T03:48:39.479Z,5.50
2018-05-02T03:51:41.485Z,5.73
2018-05-02T03:54:43.485Z,5.47
2018-05-02T03:57:45.499Z,5.07
2018-05-02T04:00:59.278Z,3.33
2018-05-02T04:07:40.195Z,5.67
2018-05-02T04:10:42.206Z,8.17
2018-05-02T04:13:44.218Z,3.67
2018-05-02T04:16:46.238Z,5.17
2018-05-02T04:19:48.220Z,5.97
2018-05-02T04:22:50.230Z,4.90
2018-05-02T04:25:52.227Z,5.33
2018-05-02T04:28:54.515Z,5.00
2018-05-02T04:31:56.531Z,3.63
2018-05-02T04:34:58.506Z,3.47
2018-05-02T04:38:00.540Z,4.70
2018-05-02T04:41:02.608Z,2.83
2018-05-02T04:44:04.562Z,5.37
2018-05-02T04:47:06.604Z,5.40
2018-05-02T04:50:08.655Z,3.47
2018-05-02T04:53:10.648Z,5.43
2018-05-02T04:56:12.671Z,6.67
2018-05-02T04:59:14.893Z,4.90
2018-05-02T05:02:16.912Z,4.37
2018-05-02T05:05:18.897Z,3.97
2018-05-02T05:08:22.436Z,6.50
2018-05-02T05:11:24.422Z,7.23
2018-05-02T05:14:26.447Z,4.73
2018-05-02T05:17:28.492Z,5.73
2018-05-02T05:20:30.496Z,9.93
2018-05-02T05:23:32.586Z,5.47
2018-05-02T05:26:35.071Z,4.37
2018-05-02T05:29:37.053Z,4.90
2018-05-02T05:32:39.047Z,3.70
2018-05-02T05:35:41.064Z,4.37
2018-05-02T05:38:43.094Z,3.63
2018-05-02T05:41:45.206Z,6.30
2018-05-02T05:44:47.226Z,4.23
2018-05-02T05:47:49.287Z,4.13
2018-05-02T05:50:51.531Z,7.77
2018-05-02T05:53:53.546Z,4.33
2018-05-02T05:56:55.577Z,6.33
2018-05-02T05:59:57.590Z,7.37
2018-05-02T06:02:59.645Z,9.60
2018-05-02T06:06:01.643Z,4.80
2018-05-02T06:09:04.492Z,7.53
2018-05-02T06:12:06.552Z,6.40
2018-05-02T06:15:08.595Z,4.53
2018-05-02T06:18:10.592Z,5.13
2018-05-02T06:21:12.913Z,6.13
2018-05-02T06:24:14.906Z,9.23
2018-05-02T06:27:16.919Z,7.30
2018-05-02T06:30:18.949Z,6.33
2018-05-02T06:33:21.081Z,5.07
2018-05-02T06:36:23.836Z,3.43
2018-05-02T06:39:25.869Z,3.97
2018-05-02T06:42:27.844Z,7.97
2018-05-02T06:45:29.910Z,5.03
2018-05-02T06:48:32.005Z,5.63
2018-05-02T06:51:34.032Z,11.07
2018-05-02T06:54:36.098Z,6.20
2018-05-02T06:57:38.098Z,4.10
2018-05-02T07:00:40.165Z,6.67
2018-05-02T07:03:42.183Z,5.83
2018-05-02T07:06:44.187Z,7.30
2018-05-02T07:09:46.190Z,4.57
2018-05-02T07:12:48.517Z,3.00
2018-05-02T07:15:50.530Z,6.93
2018-05-02T07:18:52.515Z,4.60
2018-05-02T07:21:54.553Z,3.40
2018-05-02T07:24:56.569Z,6.72
2018-05-02T07:27:58.565Z,4.28
2018-05-02T07:31:00.615Z,4.57
2018-05-02T07:34:03.419Z,6.35
2018-05-02T07:37:05.440Z,7.80
2018-05-02T07:40:07.442Z,3.92
2018-05-02T07:43:10.950Z,8.98
2018-05-02T07:48:04.630Z,6.32
2018-05-02T07:51:07.385Z,7.22
2018-05-02T07:54:10.902Z,6.32
2018-05-02T07:57:12.919Z,5.55
2018-05-02T08:00:14.900Z,4.78
2018-05-02T08:03:16.926Z,5.37
2018-05-02T08:06:18.936Z,4.97
2018-05-02T08:09:21.077Z,6.65
2018-05-02T08:12:23.066Z,3.45
2018-05-02T08:15:25.235Z,4.00
2018-05-02T08:18:27.244Z,8.63
2018-05-02T08:21:29.818Z,6.37
2018-05-02T08:24:31.888Z,3.72
2018-05-02T08:27:33.927Z,5.35
2018-05-02T08:30:35.933Z,3.50
2018-05-02T08:33:37.960Z,6.30
2018-05-02T08:36:39.968Z,8.70
2018-05-02T08:39:41.978Z,8.75
2018-05-02T08:42:43.972Z,7.90
2018-05-02T08:45:45.986Z,9.57
2018-05-02T08:48:48.094Z,7.25
2018-05-02T08:51:50.089Z,4.80
2018-05-02T08:54:52.136Z,7.10
2018-05-02T08:57:54.168Z,4.20
2018-05-02T09:00:56.168Z,8.65
2018-05-02T09:03:58.281Z,4.12
2018-05-02T09:07:00.271Z,5.70
2018-05-02T09:10:03.050Z,7.53
2018-05-02T09:13:05.050Z,8.03
2018-05-02T09:16:07.228Z,4.17
2018-05-02T09:19:09.230Z,5.93
2018-05-02T09:22:11.397Z,5.87
2018-05-02T09:25:13.432Z,4.93
2018-05-02T09:28:15.443Z,4.63
2018-05-02T09:31:17.464Z,6.97
2018-05-02T09:34:19.452Z,5.73
2018-05-02T09:37:21.713Z,7.03
2018-05-02T09:40:23.732Z,8.40
2018-05-02T09:43:25.739Z,3.80
2018-05-02T09:46:28.000Z,6.33
2018-05-02T09:49:30.754Z,7.90
2018-05-02T09:52:32.767Z,6.33
2018-05-02T09:55:34.819Z,5.83
2018-05-02T09:58:37.638Z,7.10
2018-05-02T10:01:39.638Z,5.43
2018-05-02T10:04:41.661Z,5.23
2018-05-02T10:07:43.851Z,9.10
2018-05-02T10:10:45.854Z,7.80
2018-05-02T10:13:47.925Z,5.90
2018-05-02T10:16:49.951Z,10.13
2018-05-02T10:19:51.952Z,9.53
2018-05-02T10:22:53.980Z,7.90
2018-05-02T10:25:56.053Z,6.07
2018-05-02T10:28:58.221Z,6.53
2018-05-02T10:32:00.250Z,5.87
2018-05-02T10:35:02.318Z,8.30
2018-05-02T10:38:05.129Z,9.80
2018-05-02T10:41:07.126Z,6.40
2018-05-02T10:47:28.759Z,6.20
2018-05-02T10:50:30.852Z,6.43
2018-05-02T10:53:32.838Z,12.47
2018-05-02T10:56:34.876Z,6.87
2018-05-02T10:59:36.898Z,9.03
2018-05-02T11:02:38.935Z,10.90
2018-05-02T11:05:40.978Z,8.37
2018-05-02T11:08:42.999Z,6.93
2018-05-02T11:11:45.019Z,6.97
2018-05-02T11:14:47.025Z,8.03
2018-05-02T11:17:49.219Z,8.47
2018-05-02T11:20:51.226Z,9.10
2018-05-02T11:23:53.246Z,7.80
2018-05-02T11:26:55.284Z,7.37
2018-05-02T11:29:57.275Z,10.43
2018-05-02T11:32:59.298Z,6.13
2018-05-02T11:36:01.316Z,10.23
2018-05-02T11:39:03.432Z,7.00
2018-05-02T11:42:05.439Z,8.40
2018-05-02T11:45:07.445Z,8.30
2018-05-02T11:48:10.209Z,7.50
2018-05-02T11:51:12.430Z,10.57
2018-05-02T11:54:14.446Z,7.80
2018-05-02T11:57:16.466Z,6.63
2018-05-02T12:00:18.487Z,8.20
2018-05-02T12:03:21.688Z,7.47
2018-05-02T12:06:23.312Z,11.50
2018-05-02T12:09:25.306Z,8.53
2018-05-02T12:12:28.129Z,5.40
2018-05-02T12:15:30.133Z,8.60
2018-05-02T12:18:32.975Z,6.87
2018-05-02T12:21:36.725Z,8.07
2018-05-02T12:24:39.197Z,12.80
2018-05-02T12:27:41.285Z,7.83
2018-05-02T12:30:44.641Z,8.37
2018-05-02T12:33:46.746Z,11.70
2018-05-02T12:36:48.821Z,10.93
2018-05-02T12:39:50.869Z,9.40
2018-05-02T12:42:52.873Z,7.77
2018-05-02T12:45:54.925Z,8.17
2018-05-02T12:48:57.280Z,12.30
2018-05-02T12:51:59.322Z,10.70
2018-05-02T12:55:01.345Z,10.40
2018-05-02T12:58:03.399Z,11.83
2018-05-02T13:01:05.453Z,9.17
2018-05-02T13:04:07.496Z,12.37
2018-05-02T13:07:10.320Z,14.00
2018-05-02T13:10:12.329Z,11.20
2018-05-02T13:13:14.467Z,11.80
2018-05-02T13:16:16.488Z,12.67
2018-05-02T13:19:18.553Z,12.77
2018-05-02T13:22:20.569Z,15.87
2018-05-02T13:25:22.591Z,14.30
2018-05-02T13:28:25.397Z,11.80
2018-05-02T13:31:27.413Z,11.90
2018-05-02T13:34:29.430Z,13.87
2018-05-02T13:37:32.205Z,11.00
2018-05-02T13:40:34.215Z,10.83
2018-05-02T13:43:36.236Z,9.73
2018-05-02T13:46:38.267Z,10.47
2018-05-02T13:49:40.255Z,14.23
2018-05-02T13:52:42.414Z,13.90
2018-05-02T13:55:45.104Z,14.90
2018-05-02T13:58:47.134Z,11.77
2018-05-02T14:01:49.144Z,13.50
2018-05-02T14:04:51.158Z,13.20
2018-05-02T14:07:53.238Z,11.27
2018-05-02T14:10:55.243Z,11.07
2018-05-02T14:13:57.270Z,10.57
2018-05-02T14:16:59.654Z,12.23
2018-05-02T14:20:01.663Z,10.67
2018-05-02T14:23:03.647Z,10.23
2018-05-02T14:26:05.664Z,12.47
2018-05-02T14:29:07.664Z,12.10
2018-05-02T14:32:09.771Z,10.73
2018-05-02T14:35:11.771Z,15.67
2018-05-02T14:38:14.699Z,9.77
2018-05-02T14:41:16.718Z,10.47
2018-05-02T14:44:18.764Z,16.77
2018-05-02T14:47:21.550Z,10.47
2018-05-02T14:50:23.638Z,12.40
2018-05-02T14:53:25.626Z,10.30
2018-05-02T14:56:28.251Z,15.33
2018-05-02T14:59:30.261Z,15.53
2018-05-02T15:02:32.531Z,11.40
2018-05-02T15:05:34.570Z,10.33
2018-05-02T15:08:38.316Z,14.70
2018-05-02T15:11:40.335Z,9.10
2018-05-02T15:14:42.556Z,10.07
2018-05-02T15:17:44.583Z,15.40
2018-05-02T15:20:46.781Z,12.10
2018-05-02T15:23:49.568Z,14.80
2018-05-02T15:26:52.971Z,11.53
2018-05-02T15:29:56.850Z,10.80
2018-05-02T15:32:59.567Z,13.30
2018-05-02T15:36:05.405Z,16.90
2018-05-02T15:39:07.489Z,11.40
2018-05-02T15:42:10.263Z,10.40
2018-05-02T15:45:15.552Z,11.23
2018-05-02T15:48:17.568Z,11.33
2018-05-02T15:51:19.782Z,12.87
2018-05-02T15:54:21.887Z,11.33
2018-05-02T15:57:25.617Z,13.23
2018-05-02T16:00:27.643Z,13.03
2018-05-02T16:03:29.667Z,10.50
2018-05-02T16:06:32.442Z,18.40
2018-05-02T16:09:35.975Z,13.50
2018-05-02T16:12:37.973Z,13.73
2018-05-02T16:15:40.065Z,12.60
2018-05-02T16:18:42.094Z,10.83
2018-05-02T16:21:44.126Z,16.60
2018-05-02T16:24:46.154Z,15.77
2018-05-02T16:27:48.473Z,12.13
2018-05-02T16:30:50.401Z,13.13
2018-05-02T16:33:52.423Z,13.43
2018-05-02T16:36:55.228Z,10.90
2018-05-02T16:39:57.244Z,15.57
2018-05-02T16:42:59.267Z,11.37
2018-05-02T16:46:01.461Z,16.53
2018-05-02T16:49:03.793Z,15.63
2018-05-02T16:52:06.574Z,11.10
2018-05-02T16:55:08.609Z,15.03
2018-05-02T16:58:10.627Z,11.77
2018-05-02T17:01:13.446Z,13.27
2018-05-02T17:04:15.705Z,21.37
2018-05-02T17:07:17.786Z,12.00
2018-05-02T17:10:19.805Z,11.63
2018-05-02T17:13:21.812Z,8.53
2018-05-02T17:16:24.046Z,12.27
2018-05-02T17:19:26.251Z,12.70
2018-05-02T17:22:28.334Z,13.00
2018-05-02T17:25:30.390Z,12.80
2018-05-02T17:28:32.396Z,12.10
2018-05-02T17:31:34.413Z,11.07
2018-05-02T17:34:37.203Z,15.57
2018-05-02T17:37:39.944Z,10.87
2018-05-02T17:40:42.033Z,11.63
2018-05-02T17:43:46.456Z,11.37
2018-05-02T17:46:49.259Z,13.20
2018-05-02T17:49:51.255Z,20.40
2018-05-02T17:52:53.360Z,12.83
2018-05-02T17:55:56.102Z,13.53
2018-05-02T17:58:58.082Z,16.00
2018-05-02T18:02:00.100Z,15.80
2018-05-02T18:05:02.115Z,12.10
2018-05-02T18:08:04.386Z,13.67
2018-05-02T18:11:06.395Z,18.37
2018-05-02T18:14:09.961Z,10.50
2018-05-02T18:17:12.015Z,9.80
2018-05-02T18:20:14.082Z,16.90
2018-05-02T18:23:16.233Z,12.20
2018-05-02T18:26:18.313Z,12.80
2018-05-02T18:29:21.111Z,15.67
2018-05-02T18:32:23.153Z,12.33
2018-05-02T18:35:27.613Z,11.00
2018-05-02T18:38:30.488Z,12.20
2018-05-02T18:41:33.350Z,14.83
2018-05-02T18:44:35.407Z,13.03
2018-05-02T18:47:37.537Z,14.43
2018-05-02T18:50:39.570Z,14.37
2018-05-02T18:53:42.694Z,13.90
2018-05-02T18:56:44.775Z,12.83
2018-05-02T18:59:47.708Z,14.27
2018-05-02T19:02:49.865Z,9.67
2018-05-02T19:05:52.740Z,20.63
2018-05-02T19:08:54.799Z,15.20
2018-05-02T19:11:56.823Z,17.57
2018-05-02T19:14:59.592Z,15.50
2018-05-02T19:18:01.745Z,16.60
2018-05-02T19:21:03.808Z,13.57
2018-05-02T19:24:05.821Z,11.47
2018-05-02T19:27:07.855Z,15.60
2018-05-02T19:30:09.881Z,16.00
2018-05-02T19:33:11.896Z,15.37
2018-05-02T19:36:13.947Z,16.67
2018-05-02T19:39:15.962Z,11.77
2018-05-02T19:42:18.070Z,12.83
2018-05-02T19:45:20.342Z,13.20
2018-05-02T19:48:22.444Z,16.47
2018-05-02T19:51:24.464Z,13.13
2018-05-02T19:54:26.495Z,15.53
2018-05-02T19:57:28.488Z,19.70
2018-05-02T20:00:31.273Z,15.77
2018-05-02T20:03:33.279Z,13.40
2018-05-02T20:06:35.340Z,19.33
2018-05-02T20:09:37.346Z,16.73
2018-05-02T20:12:39.334Z,15.10
2018-05-02T20:15:41.339Z,16.50
2018-05-02T20:18:43.540Z,22.33
2018-05-02T20:21:45.625Z,15.70
2018-05-02T20:24:47.614Z,19.60
2018-05-02T20:27:49.657Z,13.37
2018-05-02T20:30:51.701Z,14.43
2018-05-02T20:33:54.444Z,15.30
2018-05-02T20:36:56.438Z,17.83
2018-05-02T20:39:58.467Z,13.97
2018-05-02T20:43:00.451Z,15.93
2018-05-02T20:46:02.642Z,14.30
2018-05-02T20:49:04.677Z,17.67
2018-05-02T20:52:06.724Z,15.20
2018-05-02T20:55:08.869Z,12.70
2018-05-02T20:58:10.805Z,15.60
2018-05-02T21:01:12.832Z,10.63
2018-05-02T21:04:14.855Z,10.90
2018-05-02T21:07:16.894Z,13.77
2018-05-02T21:10:18.985Z,10.67
2018-05-02T21:13:21.747Z,12.10
2018-05-02T21:16:25.268Z,10.40
2018-05-02T21:19:27.271Z,9.30
2018-05-02T21:22:29.258Z,12.50
2018-05-02T21:27:12.712Z,12.40
2018-05-02T21:30:14.745Z,16.53
2018-05-02T21:33:17.027Z,17.43
2018-05-02T21:36:19.027Z,10.97
2018-05-02T21:39:21.033Z,9.77
2018-05-02T21:42:23.812Z,10.33
2018-05-02T21:45:25.796Z,12.07
2018-05-02T21:48:27.815Z,13.57
2018-05-02T21:51:29.819Z,8.57
2018-05-02T21:54:31.827Z,12.50
2018-05-02T21:57:34.073Z,8.10
2018-05-02T22:00:36.095Z,9.40
2018-05-02T22:03:38.087Z,9.93
2018-05-02T22:06:40.090Z,10.13
2018-05-02T22:09:42.088Z,9.93
2018-05-02T22:12:44.105Z,7.07
2018-05-02T22:15:46.956Z,10.00
2018-05-02T22:18:48.927Z,7.60
2018-05-02T22:21:50.955Z,6.00
2018-05-02T22:24:53.046Z,8.60
2018-05-02T22:27:55.188Z,10.70
2018-05-02T22:30:57.210Z,8.10
2018-05-02T22:33:59.206Z,9.83
2018-05-02T22:37:02.014Z,6.83
2018-05-02T22:40:04.002Z,6.27
2018-05-02T22:43:06.011Z,11.80
2018-05-02T22:46:07.989Z,6.17
2018-05-02T22:49:10.035Z,16.57
2018-05-02T22:52:12.246Z,13.30
2018-05-02T22:55:14.269Z,10.97
2018-05-02T22:58:16.262Z,9.70
2018-05-02T23:01:18.305Z,8.50
2018-05-02T23:04:20.305Z,9.47
2018-05-02T23:07:23.076Z,12.33
2018-05-02T23:10:25.074Z,6.60
2018-05-02T23:13:27.096Z,9.67
2018-05-02T23:16:29.088Z,7.80
2018-05-02T23:19:31.127Z,7.83
2018-05-02T23:22:33.152Z,12.93
2018-05-02T23:25:35.166Z,8.23
2018-05-02T23:28:37.189Z,10.97
2018-05-02T23:31:39.170Z,8.93
2018-05-02T23:34:41.174Z,11.50
2018-05-02T23:37:43.178Z,9.10
2018-05-02T23:40:45.183Z,7.70
2018-05-02T23:43:47.396Z,10.60
2018-05-02T23:46:51.086Z,7.97
2018-05-02T23:49:53.103Z,7.97
2018-05-02T23:52:55.103Z,6.07
2018-05-02T23:55:57.129Z,15.60
2018-05-02T23:58:59.887Z,11.07
